sensor_id;sensor_type;location;lat;lon;timestamp;P1;durP1;ratioP1;P2;durP2;ratioP2
12519;SDS011;6325;49.540;8.364;2023-06-22T00:00:34;5.30;;;4.90;;
12519;SDS011;6325;49.540;8.364;2023-06-22T00:03:01;4.78;;;4.47;;
12519;SDS011;6325;49.540;8.364;2023-06-22T00:05:28;5.38;;;4.97;;
12519;SDS011;6325;49.540;8.364;2023-06-22T00:07:57;5.35;;;4.95;;
12519;SDS011;6325;49.540;8.364;2023-06-22T00:10:24;5.72;;;5.30;;
12519;SDS011;6325;49.540;8.364;2023-06-22T00:12:51;5.53;;;5.13;;
12519;SDS011;6325;49.540;8.364;2023-06-22T00:15:19;5.40;;;5.00;;
12519;SDS011;6325;49.540;8.364;2023-06-22T00:17:46;5.68;;;5.15;;
12519;SDS011;6325;49.540;8.364;2023-06-22T00:20:13;6.07;;;5.57;;
12519;SDS011;6325;49.540;8.364;2023-06-22T00:22:41;5.43;;;5.03;;
12519;SDS011;6325;49.540;8.364;2023-06-22T00:25:10;5.47;;;5.07;;
12519;SDS011;6325;49.540;8.364;2023-06-22T00:27:37;5.55;;;5.00;;
12519;SDS011;6325;49.540;8.364;2023-06-22T00:30:04;5.63;;;5.15;;
12519;SDS011;6325;49.540;8.364;2023-06-22T00:32:32;5.00;;;4.60;;
12519;SDS011;6325;49.540;8.364;2023-06-22T00:34:59;4.82;;;4.53;;
12519;SDS011;6325;49.540;8.364;2023-06-22T00:37:26;5.43;;;5.00;;
12519;SDS011;6325;49.540;8.364;2023-06-22T00:39:54;7.55;;;6.63;;
12519;SDS011;6325;49.540;8.364;2023-06-22T00:42:23;10.23;;;8.27;;
12519;SDS011;6325;49.540;8.364;2023-06-22T00:44:50;14.30;;;10.07;;
12519;SDS011;6325;49.540;8.364;2023-06-22T00:47:17;17.80;;;11.50;;
12519;SDS011;6325;49.540;8.364;2023-06-22T00:49:45;5.97;;;5.47;;
12519;SDS011;6325;49.540;8.364;2023-06-22T00:52:13;4.82;;;4.43;;
12519;SDS011;6325;49.540;8.364;2023-06-22T00:54:45;6.13;;;5.07;;
12519;SDS011;6325;49.540;8.364;2023-06-22T00:57:15;6.05;;;5.55;;
12519;SDS011;6325;49.540;8.364;2023-06-22T00:59:44;6.05;;;5.45;;
12519;SDS011;6325;49.540;8.364;2023-06-22T01:02:12;5.78;;;5.22;;
12519;SDS011;6325;49.540;8.364;2023-06-22T01:04:40;5.88;;;5.38;;
12519;SDS011;6325;49.540;8.364;2023-06-22T01:07:16;6.28;;;5.68;;
12519;SDS011;6325;49.540;8.364;2023-06-22T01:09:46;6.75;;;5.60;;
12519;SDS011;6325;49.540;8.364;2023-06-22T01:12:15;6.60;;;5.97;;
12519;SDS011;6325;49.540;8.364;2023-06-22T01:14:46;5.50;;;5.10;;
12519;SDS011;6325;49.540;8.364;2023-06-22T01:17:14;5.70;;;5.20;;
12519;SDS011;6325;49.540;8.364;2023-06-22T01:19:43;6.25;;;5.75;;
12519;SDS011;6325;49.540;8.364;2023-06-22T01:22:12;6.10;;;5.60;;
12519;SDS011;6325;49.540;8.364;2023-06-22T01:24:41;6.55;;;6.05;;
12519;SDS011;6325;49.540;8.364;2023-06-22T01:27:13;6.40;;;5.90;;
12519;SDS011;6325;49.540;8.364;2023-06-22T01:29:43;6.60;;;6.10;;
12519;SDS011;6325;49.540;8.364;2023-06-22T01:32:11;6.53;;;5.97;;
12519;SDS011;6325;49.540;8.364;2023-06-22T01:34:39;6.40;;;5.90;;
12519;SDS011;6325;49.540;8.364;2023-06-22T01:37:07;6.57;;;6.00;;
12519;SDS011;6325;49.540;8.364;2023-06-22T01:39:34;6.18;;;5.70;;
12519;SDS011;6325;49.540;8.364;2023-06-22T01:42:02;6.57;;;6.05;;
12519;SDS011;6325;49.540;8.364;2023-06-22T01:44:30;6.78;;;6.18;;
12519;SDS011;6325;49.540;8.364;2023-06-22T01:46:59;6.57;;;5.97;;
12519;SDS011;6325;49.540;8.364;2023-06-22T01:49:26;6.25;;;5.82;;
12519;SDS011;6325;49.540;8.364;2023-06-22T01:51:54;6.10;;;5.70;;
12519;SDS011;6325;49.540;8.364;2023-06-22T01:54:21;7.00;;;6.43;;
12519;SDS011;6325;49.540;8.364;2023-06-22T01:56:48;6.70;;;6.10;;
12519;SDS011;6325;49.540;8.364;2023-06-22T01:59:17;6.87;;;6.37;;
12519;SDS011;6325;49.540;8.364;2023-06-22T02:01:47;7.30;;;6.70;;
12519;SDS011;6325;49.540;8.364;2023-06-22T02:04:19;7.10;;;6.50;;
12519;SDS011;6325;49.540;8.364;2023-06-22T02:06:47;7.20;;;6.60;;
12519;SDS011;6325;49.540;8.364;2023-06-22T02:09:17;6.90;;;6.40;;
12519;SDS011;6325;49.540;8.364;2023-06-22T02:11:45;7.20;;;6.60;;
12519;SDS011;6325;49.540;8.364;2023-06-22T02:14:13;7.07;;;6.57;;
12519;SDS011;6325;49.540;8.364;2023-06-22T02:16:41;7.10;;;6.60;;
12519;SDS011;6325;49.540;8.364;2023-06-22T02:19:09;7.20;;;6.60;;
12519;SDS011;6325;49.540;8.364;2023-06-22T02:21:37;7.78;;;7.18;;
12519;SDS011;6325;49.540;8.364;2023-06-22T02:24:04;7.68;;;7.07;;
12519;SDS011;6325;49.540;8.364;2023-06-22T02:26:31;7.95;;;7.28;;
12519;SDS011;6325;49.540;8.364;2023-06-22T02:28:59;7.50;;;6.90;;
12519;SDS011;6325;49.540;8.364;2023-06-22T02:31:26;7.43;;;6.82;;
12519;SDS011;6325;49.540;8.364;2023-06-22T02:33:55;7.90;;;7.30;;
12519;SDS011;6325;49.540;8.364;2023-06-22T02:36:22;7.30;;;6.80;;
12519;SDS011;6325;49.540;8.364;2023-06-22T02:38:51;8.15;;;7.55;;
12519;SDS011;6325;49.540;8.364;2023-06-22T02:41:19;8.07;;;7.50;;
12519;SDS011;6325;49.540;8.364;2023-06-22T02:43:46;8.85;;;8.15;;
12519;SDS011;6325;49.540;8.364;2023-06-22T02:46:14;8.40;;;7.70;;
12519;SDS011;6325;49.540;8.364;2023-06-22T02:48:41;8.50;;;7.80;;
12519;SDS011;6325;49.540;8.364;2023-06-22T02:51:08;8.77;;;8.07;;
12519;SDS011;6325;49.540;8.364;2023-06-22T02:53:35;9.03;;;8.33;;
12519;SDS011;6325;49.540;8.364;2023-06-22T02:56:04;8.55;;;7.88;;
12519;SDS011;6325;49.540;8.364;2023-06-22T02:58:31;9.32;;;8.63;;
12519;SDS011;6325;49.540;8.364;2023-06-22T03:01:03;9.13;;;8.40;;
12519;SDS011;6325;49.540;8.364;2023-06-22T03:03:30;8.65;;;8.05;;
12519;SDS011;6325;49.540;8.364;2023-06-22T03:05:58;9.30;;;8.40;;
12519;SDS011;6325;49.540;8.364;2023-06-22T03:08:26;9.38;;;8.57;;
12519;SDS011;6325;49.540;8.364;2023-06-22T03:10:53;8.70;;;7.95;;
12519;SDS011;6325;49.540;8.364;2023-06-22T03:13:22;8.85;;;8.15;;
12519;SDS011;6325;49.540;8.364;2023-06-22T03:15:50;8.75;;;8.05;;
12519;SDS011;6325;49.540;8.364;2023-06-22T03:18:17;9.43;;;8.73;;
12519;SDS011;6325;49.540;8.364;2023-06-22T03:20:47;9.10;;;8.40;;
12519;SDS011;6325;49.540;8.364;2023-06-22T03:23:14;9.60;;;8.88;;
12519;SDS011;6325;49.540;8.364;2023-06-22T03:25:42;8.95;;;8.25;;
12519;SDS011;6325;49.540;8.364;2023-06-22T03:28:10;9.85;;;9.15;;
12519;SDS011;6325;49.540;8.364;2023-06-22T03:30:38;8.88;;;8.18;;
12519;SDS011;6325;49.540;8.364;2023-06-22T03:33:06;9.13;;;8.43;;
12519;SDS011;6325;49.540;8.364;2023-06-22T03:35:33;9.07;;;8.38;;
12519;SDS011;6325;49.540;8.364;2023-06-22T03:38:00;9.18;;;8.40;;
12519;SDS011;6325;49.540;8.364;2023-06-22T03:40:27;9.70;;;8.90;;
12519;SDS011;6325;49.540;8.364;2023-06-22T03:42:54;9.50;;;8.70;;
12519;SDS011;6325;49.540;8.364;2023-06-22T03:45:21;8.82;;;8.13;;
12519;SDS011;6325;49.540;8.364;2023-06-22T03:47:50;9.07;;;8.38;;
12519;SDS011;6325;49.540;8.364;2023-06-22T03:50:17;8.77;;;8.15;;
12519;SDS011;6325;49.540;8.364;2023-06-22T03:52:45;9.75;;;8.95;;
12519;SDS011;6325;49.540;8.364;2023-06-22T03:55:12;10.20;;;9.30;;
12519;SDS011;6325;49.540;8.364;2023-06-22T03:57:39;9.73;;;8.93;;
12519;SDS011;6325;49.540;8.364;2023-06-22T04:00:07;8.95;;;8.25;;
12519;SDS011;6325;49.540;8.364;2023-06-22T04:02:35;9.20;;;8.50;;
12519;SDS011;6325;49.540;8.364;2023-06-22T04:05:04;10.00;;;9.20;;
12519;SDS011;6325;49.540;8.364;2023-06-22T04:07:31;9.40;;;8.60;;
12519;SDS011;6325;49.540;8.364;2023-06-22T04:09:58;10.00;;;9.18;;
12519;SDS011;6325;49.540;8.364;2023-06-22T04:12:25;8.97;;;8.30;;
12519;SDS011;6325;49.540;8.364;2023-06-22T04:14:52;8.93;;;8.13;;
12519;SDS011;6325;49.540;8.364;2023-06-22T04:17:20;9.02;;;8.30;;
12519;SDS011;6325;49.540;8.364;2023-06-22T04:19:49;9.02;;;8.32;;
12519;SDS011;6325;49.540;8.364;2023-06-22T04:22:18;8.70;;;8.02;;
12519;SDS011;6325;49.540;8.364;2023-06-22T04:24:45;9.32;;;8.63;;
12519;SDS011;6325;49.540;8.364;2023-06-22T04:27:12;9.63;;;8.85;;
12519;SDS011;6325;49.540;8.364;2023-06-22T04:29:39;9.05;;;8.35;;
12519;SDS011;6325;49.540;8.364;2023-06-22T04:32:14;9.10;;;8.32;;
12519;SDS011;6325;49.540;8.364;2023-06-22T04:34:41;9.10;;;8.40;;
12519;SDS011;6325;49.540;8.364;2023-06-22T04:37:08;9.13;;;8.43;;
12519;SDS011;6325;49.540;8.364;2023-06-22T04:39:41;9.60;;;8.90;;
12519;SDS011;6325;49.540;8.364;2023-06-22T04:42:08;9.10;;;8.50;;
12519;SDS011;6325;49.540;8.364;2023-06-22T04:44:36;10.48;;;9.50;;
12519;SDS011;6325;49.540;8.364;2023-06-22T04:47:05;9.10;;;8.40;;
12519;SDS011;6325;49.540;8.364;2023-06-22T04:49:33;9.38;;;8.68;;
12519;SDS011;6325;49.540;8.364;2023-06-22T04:52:03;9.88;;;9.00;;
12519;SDS011;6325;49.540;8.364;2023-06-22T04:54:30;9.40;;;8.70;;
12519;SDS011;6325;49.540;8.364;2023-06-22T04:57:00;8.98;;;8.38;;
12519;SDS011;6325;49.540;8.364;2023-06-22T04:59:27;9.30;;;8.60;;
12519;SDS011;6325;49.540;8.364;2023-06-22T05:01:55;9.43;;;8.73;;
12519;SDS011;6325;49.540;8.364;2023-06-22T05:04:22;9.68;;;8.98;;
12519;SDS011;6325;49.540;8.364;2023-06-22T05:06:49;8.52;;;7.88;;
12519;SDS011;6325;49.540;8.364;2023-06-22T05:09:16;8.90;;;8.20;;
12519;SDS011;6325;49.540;8.364;2023-06-22T05:11:43;9.75;;;8.70;;
12519;SDS011;6325;49.540;8.364;2023-06-22T05:14:12;10.55;;;9.48;;
12519;SDS011;6325;49.540;8.364;2023-06-22T05:16:40;9.80;;;8.90;;
12519;SDS011;6325;49.540;8.364;2023-06-22T05:19:08;8.85;;;8.15;;
12519;SDS011;6325;49.540;8.364;2023-06-22T05:21:35;8.73;;;7.93;;
12519;SDS011;6325;49.540;8.364;2023-06-22T05:24:03;9.15;;;8.25;;
12519;SDS011;6325;49.540;8.364;2023-06-22T05:26:30;9.43;;;8.57;;
12519;SDS011;6325;49.540;8.364;2023-06-22T05:28:58;10.57;;;8.40;;
12519;SDS011;6325;49.540;8.364;2023-06-22T05:31:27;9.20;;;8.27;;
12519;SDS011;6325;49.540;8.364;2023-06-22T05:33:54;12.07;;;8.80;;
12519;SDS011;6325;49.540;8.364;2023-06-22T05:36:21;10.25;;;8.57;;
12519;SDS011;6325;49.540;8.364;2023-06-22T05:38:51;9.55;;;8.45;;
12519;SDS011;6325;49.540;8.364;2023-06-22T05:41:19;8.48;;;7.68;;
12519;SDS011;6325;49.540;8.364;2023-06-22T05:43:46;8.82;;;8.10;;
12519;SDS011;6325;49.540;8.364;2023-06-22T05:46:13;8.48;;;7.82;;
12519;SDS011;6325;49.540;8.364;2023-06-22T05:48:41;7.85;;;7.25;;
12519;SDS011;6325;49.540;8.364;2023-06-22T05:51:08;9.38;;;8.60;;
12519;SDS011;6325;49.540;8.364;2023-06-22T05:53:35;9.15;;;8.40;;
12519;SDS011;6325;49.540;8.364;2023-06-22T05:56:03;8.88;;;8.18;;
12519;SDS011;6325;49.540;8.364;2023-06-22T05:58:30;9.80;;;8.88;;
12519;SDS011;6325;49.540;8.364;2023-06-22T06:00:57;8.40;;;7.80;;
12519;SDS011;6325;49.540;8.364;2023-06-22T06:03:25;8.27;;;7.57;;
12519;SDS011;6325;49.540;8.364;2023-06-22T06:05:55;9.30;;;8.50;;
12519;SDS011;6325;49.540;8.364;2023-06-22T06:08:22;8.57;;;7.88;;
12519;SDS011;6325;49.540;8.364;2023-06-22T06:10:49;8.45;;;7.63;;
12519;SDS011;6325;49.540;8.364;2023-06-22T06:13:18;7.80;;;7.20;;
12519;SDS011;6325;49.540;8.364;2023-06-22T06:15:45;7.43;;;6.93;;
12519;SDS011;6325;49.540;8.364;2023-06-22T06:18:12;7.60;;;7.00;;
12519;SDS011;6325;49.540;8.364;2023-06-22T06:20:40;7.95;;;7.15;;
12519;SDS011;6325;49.540;8.364;2023-06-22T06:23:08;7.50;;;6.90;;
12519;SDS011;6325;49.540;8.364;2023-06-22T06:25:35;7.30;;;6.70;;
12519;SDS011;6325;49.540;8.364;2023-06-22T06:28:02;7.43;;;6.72;;
12519;SDS011;6325;49.540;8.364;2023-06-22T06:30:30;6.70;;;6.20;;
12519;SDS011;6325;49.540;8.364;2023-06-22T06:32:57;7.10;;;6.50;;
12519;SDS011;6325;49.540;8.364;2023-06-22T06:35:24;7.28;;;6.68;;
12519;SDS011;6325;49.540;8.364;2023-06-22T06:37:51;7.30;;;6.63;;
12519;SDS011;6325;49.540;8.364;2023-06-22T06:40:19;6.82;;;6.30;;
12519;SDS011;6325;49.540;8.364;2023-06-22T06:42:47;6.80;;;6.20;;
12519;SDS011;6325;49.540;8.364;2023-06-22T06:45:15;7.07;;;6.47;;
12519;SDS011;6325;49.540;8.364;2023-06-22T06:47:42;6.88;;;6.38;;
12519;SDS011;6325;49.540;8.364;2023-06-22T06:50:10;6.60;;;5.97;;
12519;SDS011;6325;49.540;8.364;2023-06-22T06:52:37;6.35;;;5.85;;
12519;SDS011;6325;49.540;8.364;2023-06-22T06:55:05;5.78;;;5.32;;
12519;SDS011;6325;49.540;8.364;2023-06-22T06:57:38;6.15;;;5.65;;
12519;SDS011;6325;49.540;8.364;2023-06-22T07:00:06;5.93;;;5.43;;
12519;SDS011;6325;49.540;8.364;2023-06-22T07:02:34;6.20;;;5.65;;
12519;SDS011;6325;49.540;8.364;2023-06-22T07:05:01;7.32;;;6.63;;
12519;SDS011;6325;49.540;8.364;2023-06-22T07:07:29;6.63;;;6.10;;
12519;SDS011;6325;49.540;8.364;2023-06-22T07:09:56;7.50;;;6.90;;
12519;SDS011;6325;49.540;8.364;2023-06-22T07:12:23;7.18;;;6.47;;
12519;SDS011;6325;49.540;8.364;2023-06-22T07:14:52;6.90;;;6.40;;
12519;SDS011;6325;49.540;8.364;2023-06-22T07:17:20;7.00;;;6.47;;
12519;SDS011;6325;49.540;8.364;2023-06-22T07:19:47;7.10;;;6.50;;
12519;SDS011;6325;49.540;8.364;2023-06-22T07:22:14;6.60;;;6.10;;
12519;SDS011;6325;49.540;8.364;2023-06-22T07:24:41;6.45;;;5.90;;
12519;SDS011;6325;49.540;8.364;2023-06-22T07:27:08;6.60;;;6.03;;
12519;SDS011;6325;49.540;8.364;2023-06-22T07:29:37;6.13;;;5.72;;
12519;SDS011;6325;49.540;8.364;2023-06-22T07:32:07;6.70;;;6.20;;
12519;SDS011;6325;49.540;8.364;2023-06-22T07:34:34;6.30;;;5.80;;
12519;SDS011;6325;49.540;8.364;2023-06-22T07:37:01;6.10;;;5.60;;
12519;SDS011;6325;49.540;8.364;2023-06-22T07:39:29;6.03;;;5.53;;
12519;SDS011;6325;49.540;8.364;2023-06-22T07:41:56;6.90;;;6.30;;
12519;SDS011;6325;49.540;8.364;2023-06-22T07:44:24;5.85;;;5.45;;
12519;SDS011;6325;49.540;8.364;2023-06-22T07:46:51;6.38;;;5.85;;
12519;SDS011;6325;49.540;8.364;2023-06-22T07:49:20;6.00;;;5.60;;
12519;SDS011;6325;49.540;8.364;2023-06-22T07:51:47;6.78;;;6.15;;
12519;SDS011;6325;49.540;8.364;2023-06-22T07:54:14;6.00;;;5.50;;
12519;SDS011;6325;49.540;8.364;2023-06-22T07:56:42;6.10;;;5.60;;
12519;SDS011;6325;49.540;8.364;2023-06-22T07:59:09;6.10;;;5.53;;
12519;SDS011;6325;49.540;8.364;2023-06-22T08:01:36;5.60;;;5.20;;
12519;SDS011;6325;49.540;8.364;2023-06-22T08:04:04;5.72;;;5.25;;
12519;SDS011;6325;49.540;8.364;2023-06-22T08:06:33;5.83;;;5.33;;
12519;SDS011;6325;49.540;8.364;2023-06-22T08:09:00;6.07;;;5.50;;
12519;SDS011;6325;49.540;8.364;2023-06-22T08:11:27;5.90;;;5.43;;
12519;SDS011;6325;49.540;8.364;2023-06-22T08:13:55;6.28;;;5.75;;
12519;SDS011;6325;49.540;8.364;2023-06-22T08:16:23;6.10;;;5.70;;
12519;SDS011;6325;49.540;8.364;2023-06-22T08:18:50;6.25;;;5.75;;
12519;SDS011;6325;49.540;8.364;2023-06-22T08:21:18;5.60;;;5.20;;
12519;SDS011;6325;49.540;8.364;2023-06-22T08:23:46;5.70;;;5.20;;
12519;SDS011;6325;49.540;8.364;2023-06-22T08:26:13;6.22;;;5.63;;
12519;SDS011;6325;49.540;8.364;2023-06-22T08:28:41;5.68;;;5.28;;
12519;SDS011;6325;49.540;8.364;2023-06-22T08:31:08;6.05;;;5.55;;
12519;SDS011;6325;49.540;8.364;2023-06-22T08:33:37;6.43;;;5.82;;
12519;SDS011;6325;49.540;8.364;2023-06-22T08:36:04;6.10;;;5.63;;
12519;SDS011;6325;49.540;8.364;2023-06-22T08:38:33;6.18;;;5.68;;
12519;SDS011;6325;49.540;8.364;2023-06-22T08:41:01;5.95;;;5.55;;
12519;SDS011;6325;49.540;8.364;2023-06-22T08:43:28;6.40;;;5.90;;
12519;SDS011;6325;49.540;8.364;2023-06-22T08:45:56;6.38;;;5.88;;
12519;SDS011;6325;49.540;8.364;2023-06-22T08:48:23;6.40;;;5.90;;
12519;SDS011;6325;49.540;8.364;2023-06-22T08:50:50;6.15;;;5.68;;
12519;SDS011;6325;49.540;8.364;2023-06-22T08:53:17;6.38;;;5.88;;
12519;SDS011;6325;49.540;8.364;2023-06-22T08:55:44;5.80;;;5.30;;
12519;SDS011;6325;49.540;8.364;2023-06-22T08:58:12;6.50;;;6.00;;
12519;SDS011;6325;49.540;8.364;2023-06-22T09:00:40;5.90;;;5.45;;
12519;SDS011;6325;49.540;8.364;2023-06-22T09:03:07;5.70;;;5.30;;
12519;SDS011;6325;49.540;8.364;2023-06-22T09:05:34;5.63;;;5.20;;
12519;SDS011;6325;49.540;8.364;2023-06-22T09:08:01;5.35;;;4.95;;
12519;SDS011;6325;49.540;8.364;2023-06-22T09:10:28;5.75;;;5.25;;
12519;SDS011;6325;49.540;8.364;2023-06-22T09:12:56;5.47;;;5.13;;
12519;SDS011;6325;49.540;8.364;2023-06-22T09:15:24;5.53;;;5.00;;
12519;SDS011;6325;49.540;8.364;2023-06-22T09:17:52;5.03;;;4.63;;
12519;SDS011;6325;49.540;8.364;2023-06-22T09:20:20;5.70;;;5.20;;
12519;SDS011;6325;49.540;8.364;2023-06-22T09:22:47;5.10;;;4.70;;
12519;SDS011;6325;49.540;8.364;2023-06-22T09:25:14;5.13;;;4.68;;
12519;SDS011;6325;49.540;8.364;2023-06-22T09:27:41;4.97;;;4.57;;
12519;SDS011;6325;49.540;8.364;2023-06-22T09:30:09;4.72;;;4.38;;
12519;SDS011;6325;49.540;8.364;2023-06-22T09:32:37;4.80;;;4.30;;
12519;SDS011;6325;49.540;8.364;2023-06-22T09:35:05;4.60;;;4.30;;
12519;SDS011;6325;49.540;8.364;2023-06-22T09:37:33;4.10;;;3.70;;
12519;SDS011;6325;49.540;8.364;2023-06-22T09:40:00;4.30;;;3.90;;
12519;SDS011;6325;49.540;8.364;2023-06-22T09:42:33;4.00;;;3.70;;
12519;SDS011;6325;49.540;8.364;2023-06-22T09:45:00;6.03;;;4.10;;
12519;SDS011;6325;49.540;8.364;2023-06-22T09:47:27;4.20;;;3.80;;
12519;SDS011;6325;49.540;8.364;2023-06-22T09:49:56;4.50;;;3.97;;
12519;SDS011;6325;49.540;8.364;2023-06-22T09:52:24;5.38;;;3.92;;
12519;SDS011;6325;49.540;8.364;2023-06-22T09:54:51;4.30;;;3.80;;
12519;SDS011;6325;49.540;8.364;2023-06-22T09:57:19;4.32;;;3.92;;
12519;SDS011;6325;49.540;8.364;2023-06-22T09:59:46;4.13;;;3.83;;
12519;SDS011;6325;49.540;8.364;2023-06-22T10:02:13;4.38;;;3.97;;
12519;SDS011;6325;49.540;8.364;2023-06-22T10:04:40;4.35;;;3.92;;
12519;SDS011;6325;49.540;8.364;2023-06-22T10:07:09;4.47;;;4.07;;
12519;SDS011;6325;49.540;8.364;2023-06-22T10:09:36;4.27;;;3.87;;
12519;SDS011;6325;49.540;8.364;2023-06-22T10:12:03;4.20;;;3.75;;
12519;SDS011;6325;49.540;8.364;2023-06-22T10:14:30;4.43;;;4.03;;
12519;SDS011;6325;49.540;8.364;2023-06-22T10:16:57;4.23;;;3.70;;
12519;SDS011;6325;49.540;8.364;2023-06-22T10:19:24;4.87;;;4.10;;
12519;SDS011;6325;49.540;8.364;2023-06-22T10:21:51;4.50;;;4.10;;
12519;SDS011;6325;49.540;8.364;2023-06-22T10:24:20;4.13;;;3.73;;
12519;SDS011;6325;49.540;8.364;2023-06-22T10:26:47;4.00;;;3.70;;
12519;SDS011;6325;49.540;8.364;2023-06-22T10:29:14;4.15;;;3.75;;
12519;SDS011;6325;49.540;8.364;2023-06-22T10:31:41;4.20;;;3.80;;
12519;SDS011;6325;49.540;8.364;2023-06-22T10:34:08;4.55;;;3.95;;
12519;SDS011;6325;49.540;8.364;2023-06-22T10:36:36;5.15;;;3.83;;
12519;SDS011;6325;49.540;8.364;2023-06-22T10:39:03;4.30;;;3.85;;
12519;SDS011;6325;49.540;8.364;2023-06-22T10:41:32;4.95;;;3.75;;
12519;SDS011;6325;49.540;8.364;2023-06-22T10:43:59;4.10;;;3.80;;
12519;SDS011;6325;49.540;8.364;2023-06-22T10:46:26;4.38;;;3.95;;
12519;SDS011;6325;49.540;8.364;2023-06-22T10:48:53;4.38;;;3.88;;
12519;SDS011;6325;49.540;8.364;2023-06-22T10:51:22;4.70;;;4.05;;
12519;SDS011;6325;49.540;8.364;2023-06-22T10:53:49;6.47;;;4.20;;
12519;SDS011;6325;49.540;8.364;2023-06-22T10:56:17;4.93;;;4.20;;
12519;SDS011;6325;49.540;8.364;2023-06-22T10:58:46;5.32;;;4.13;;
12519;SDS011;6325;49.540;8.364;2023-06-22T11:01:13;4.35;;;3.90;;
12519;SDS011;6325;49.540;8.364;2023-06-22T11:03:40;4.68;;;4.28;;
12519;SDS011;6325;49.540;8.364;2023-06-22T11:06:07;5.78;;;4.60;;
12519;SDS011;6325;49.540;8.364;2023-06-22T11:08:34;4.60;;;4.03;;
12519;SDS011;6325;49.540;8.364;2023-06-22T11:11:01;4.35;;;3.95;;
12519;SDS011;6325;49.540;8.364;2023-06-22T11:13:28;5.22;;;4.40;;
12519;SDS011;6325;49.540;8.364;2023-06-22T11:15:57;4.97;;;4.03;;
12519;SDS011;6325;49.540;8.364;2023-06-22T11:18:24;5.82;;;4.30;;
12519;SDS011;6325;49.540;8.364;2023-06-22T11:20:51;5.05;;;4.15;;
12519;SDS011;6325;49.540;8.364;2023-06-22T11:23:18;4.90;;;4.28;;
12519;SDS011;6325;49.540;8.364;2023-06-22T11:25:45;5.72;;;4.38;;
12519;SDS011;6325;49.540;8.364;2023-06-22T11:28:12;6.43;;;4.50;;
12519;SDS011;6325;49.540;8.364;2023-06-22T11:30:40;5.70;;;4.75;;
12519;SDS011;6325;49.540;8.364;2023-06-22T11:33:08;5.38;;;4.20;;
12519;SDS011;6325;49.540;8.364;2023-06-22T11:35:35;6.20;;;4.17;;
12519;SDS011;6325;49.540;8.364;2023-06-22T11:38:02;4.47;;;4.03;;
12519;SDS011;6325;49.540;8.364;2023-06-22T11:40:30;4.82;;;4.10;;
12519;SDS011;6325;49.540;8.364;2023-06-22T11:42:57;5.03;;;4.40;;
12519;SDS011;6325;49.540;8.364;2023-06-22T11:45:24;5.15;;;4.32;;
12519;SDS011;6325;49.540;8.364;2023-06-22T11:47:51;6.32;;;4.53;;
12519;SDS011;6325;49.540;8.364;2023-06-22T11:50:20;6.10;;;4.13;;
12519;SDS011;6325;49.540;8.364;2023-06-22T11:52:47;6.20;;;4.40;;
12519;SDS011;6325;49.540;8.364;2023-06-22T11:55:14;5.38;;;4.25;;
12519;SDS011;6325;49.540;8.364;2023-06-22T11:57:52;5.32;;;3.78;;
12519;SDS011;6325;49.540;8.364;2023-06-22T12:00:19;5.55;;;4.30;;
12519;SDS011;6325;49.540;8.364;2023-06-22T12:02:48;5.53;;;4.17;;
12519;SDS011;6325;49.540;8.364;2023-06-22T12:05:16;4.45;;;4.00;;
12519;SDS011;6325;49.540;8.364;2023-06-22T12:07:44;4.78;;;4.00;;
12519;SDS011;6325;49.540;8.364;2023-06-22T12:10:11;5.22;;;3.97;;
12519;SDS011;6325;49.540;8.364;2023-06-22T12:12:39;5.82;;;4.40;;
12519;SDS011;6325;49.540;8.364;2023-06-22T12:15:06;6.93;;;4.40;;
12519;SDS011;6325;49.540;8.364;2023-06-22T12:17:33;3.78;;;3.47;;
12519;SDS011;6325;49.540;8.364;2023-06-22T12:20:00;5.70;;;4.10;;
12519;SDS011;6325;49.540;8.364;2023-06-22T12:22:30;5.60;;;4.30;;
12519;SDS011;6325;49.540;8.364;2023-06-22T12:24:58;5.73;;;4.00;;
12519;SDS011;6325;49.540;8.364;2023-06-22T12:27:26;5.55;;;4.45;;
12519;SDS011;6325;49.540;8.364;2023-06-22T12:29:55;7.95;;;4.50;;
12519;SDS011;6325;49.540;8.364;2023-06-22T12:32:22;5.30;;;4.15;;
12519;SDS011;6325;49.540;8.364;2023-06-22T12:34:50;5.90;;;4.30;;
12519;SDS011;6325;49.540;8.364;2023-06-22T12:37:17;5.30;;;4.13;;
12519;SDS011;6325;49.540;8.364;2023-06-22T12:39:45;5.95;;;4.40;;
12519;SDS011;6325;49.540;8.364;2023-06-22T12:42:13;7.07;;;4.40;;
12519;SDS011;6325;49.540;8.364;2023-06-22T12:44:40;5.15;;;4.10;;
12519;SDS011;6325;49.540;8.364;2023-06-22T12:47:07;4.57;;;4.15;;
12519;SDS011;6325;49.540;8.364;2023-06-22T12:49:35;4.40;;;4.00;;
12519;SDS011;6325;49.540;8.364;2023-06-22T12:52:02;5.18;;;4.28;;
12519;SDS011;6325;49.540;8.364;2023-06-22T12:54:29;6.35;;;4.50;;
12519;SDS011;6325;49.540;8.364;2023-06-22T12:56:56;5.30;;;4.07;;
12519;SDS011;6325;49.540;8.364;2023-06-22T12:59:25;4.32;;;3.90;;
12519;SDS011;6325;49.540;8.364;2023-06-22T13:01:52;6.82;;;4.25;;
12519;SDS011;6325;49.540;8.364;2023-06-22T13:04:19;6.35;;;4.18;;
12519;SDS011;6325;49.540;8.364;2023-06-22T13:06:46;4.68;;;4.18;;
12519;SDS011;6325;49.540;8.364;2023-06-22T13:09:14;7.20;;;4.25;;
12519;SDS011;6325;49.540;8.364;2023-06-22T13:11:41;5.60;;;4.20;;
12519;SDS011;6325;49.540;8.364;2023-06-22T13:14:08;5.90;;;4.00;;
12519;SDS011;6325;49.540;8.364;2023-06-22T13:16:37;5.67;;;4.57;;
12519;SDS011;6325;49.540;8.364;2023-06-22T13:19:04;6.03;;;4.28;;
12519;SDS011;6325;49.540;8.364;2023-06-22T13:21:31;7.47;;;4.40;;
12519;SDS011;6325;49.540;8.364;2023-06-22T13:23:59;7.32;;;4.28;;
12519;SDS011;6325;49.540;8.364;2023-06-22T13:26:26;8.57;;;4.20;;
12519;SDS011;6325;49.540;8.364;2023-06-22T13:28:54;4.40;;;3.93;;
12519;SDS011;6325;49.540;8.364;2023-06-22T13:31:21;5.68;;;4.20;;
12519;SDS011;6325;49.540;8.364;2023-06-22T13:33:49;6.72;;;4.22;;
12519;SDS011;6325;49.540;8.364;2023-06-22T13:36:17;6.40;;;4.10;;
12519;SDS011;6325;49.540;8.364;2023-06-22T13:38:44;6.28;;;4.10;;
12519;SDS011;6325;49.540;8.364;2023-06-22T13:41:12;8.00;;;4.40;;
12519;SDS011;6325;49.540;8.364;2023-06-22T13:43:39;6.57;;;4.40;;
12519;SDS011;6325;49.540;8.364;2023-06-22T13:46:06;5.43;;;4.28;;
12519;SDS011;6325;49.540;8.364;2023-06-22T13:48:33;6.97;;;4.30;;
12519;SDS011;6325;49.540;8.364;2023-06-22T13:51:02;6.47;;;4.53;;
12519;SDS011;6325;49.540;8.364;2023-06-22T13:53:29;7.50;;;4.30;;
12519;SDS011;6325;49.540;8.364;2023-06-22T13:55:56;6.63;;;4.40;;
12519;SDS011;6325;49.540;8.364;2023-06-22T13:58:23;7.80;;;4.40;;
12519;SDS011;6325;49.540;8.364;2023-06-22T14:00:51;7.45;;;4.60;;
12519;SDS011;6325;49.540;8.364;2023-06-22T14:03:18;6.13;;;4.33;;
12519;SDS011;6325;49.540;8.364;2023-06-22T14:05:46;7.57;;;4.43;;
12519;SDS011;6325;49.540;8.364;2023-06-22T14:08:14;7.57;;;4.57;;
12519;SDS011;6325;49.540;8.364;2023-06-22T14:10:41;8.10;;;4.37;;
12519;SDS011;6325;49.540;8.364;2023-06-22T14:13:08;8.38;;;4.45;;
12519;SDS011;6325;49.540;8.364;2023-06-22T14:15:35;6.68;;;4.15;;
12519;SDS011;6325;49.540;8.364;2023-06-22T14:18:03;5.22;;;3.90;;
12519;SDS011;6325;49.540;8.364;2023-06-22T14:20:31;6.93;;;4.30;;
12519;SDS011;6325;49.540;8.364;2023-06-22T14:22:58;6.50;;;4.38;;
12519;SDS011;6325;49.540;8.364;2023-06-22T14:25:27;6.82;;;4.70;;
12519;SDS011;6325;49.540;8.364;2023-06-22T14:27:54;5.53;;;4.40;;
12519;SDS011;6325;49.540;8.364;2023-06-22T14:30:21;6.22;;;4.40;;
12519;SDS011;6325;49.540;8.364;2023-06-22T14:32:48;6.28;;;4.30;;
12519;SDS011;6325;49.540;8.364;2023-06-22T14:35:15;6.60;;;4.70;;
12519;SDS011;6325;49.540;8.364;2023-06-22T14:37:42;7.03;;;4.53;;
12519;SDS011;6325;49.540;8.364;2023-06-22T14:40:10;8.23;;;5.35;;
12519;SDS011;6325;49.540;8.364;2023-06-22T14:42:40;7.28;;;4.78;;
12519;SDS011;6325;49.540;8.364;2023-06-22T14:45:07;6.13;;;4.50;;
12519;SDS011;6325;49.540;8.364;2023-06-22T14:47:35;8.32;;;4.40;;
12519;SDS011;6325;49.540;8.364;2023-06-22T14:50:02;9.43;;;4.65;;
12519;SDS011;6325;49.540;8.364;2023-06-22T14:52:29;6.05;;;4.68;;
12519;SDS011;6325;49.540;8.364;2023-06-22T14:54:56;6.35;;;4.40;;
12519;SDS011;6325;49.540;8.364;2023-06-22T14:57:23;6.53;;;4.63;;
12519;SDS011;6325;49.540;8.364;2023-06-22T14:59:52;6.50;;;4.93;;
12519;SDS011;6325;49.540;8.364;2023-06-22T15:02:19;5.72;;;4.53;;